Wedgefield, SC

8:11 PM EDT on June 03, 2015 (GMT -0400)
Garden Gate | | Change Station
CLOSE
Current Station
Personal Weather Station
Location: Sumter, SC
Elevation: 200 ft
Nearby Weather Stations

Elev 200 ft 33.94 °N, 80.42 °W | Updated 0 second ago

Partly Cloudy
Partly Cloudy
74.2 °F
Feels Like 75 °F
N
0.0
Wind Variable Wind from NW
Gusts 0.0 mph

Today
High -- | Low -- °F
--% Chance of Precip.
Yesterday
High -- | Low -- °F
Precip. -- in
6:11 AM 8:28 PM
Full, 98% visible
Pressure 29.97 in
Visibility 10.0 miles
Clouds Clear
Heat Index 75 °F
Dew Point 66 °F
Humidity 76%
Rainfall 0.00 in
Snow Depth Not available.
UV 0 out of 12
Pollen 4.70 out of 12
Air Quality Not available.
Flu Activity Local Activity
METAR KSSC 032358Z AUTO 09005KT 10SM CLR 24/18 A2997 RMK AO2 SLP149 T02390181 10252 20236 53002 $

More Conditions Fewer Conditions

Pressure 29.97 in
Visibility 10.0 miles
Clouds Clear
Heat Index 75 °F
Dew Point 66 °F
Humidity 76%
Rainfall 0.00 in
Snow Depth Not available.
UV 0 out of 12
Pollen 4.70 out of 12
Air Quality Not available.
Flu Activity Local Activity
METAR KSSC 032358Z AUTO 09005KT 10SM CLR 24/18 A2997 RMK AO2 SLP149 T02390181 10252 20236 53002 $

More Conditions Fewer Conditions

10-Day Weather Forecast

×

Almanac

Astronomy

Jun. 03, 2015 Rise Set
Actual Time
Civil Twilight
Nautical Twilight
Astronomical Twilight
Moon
Length of Visible Light
Length of Day
Tomorrow will be .
, % of the Moon is Illuminated

Today's Extremes

State Highs State Lows

Community

WunderPhotos

Upload Photos

1,826,310 photos uploaded!

WunderBlogs® & News

Nearby

Air Quality

  Air Quality AQ Index Pollutant
Not available.

Snow Depth

Station Depth Elevation

Earthquake Activity

City Distance Mag. Time & Date
Minimum magnitude displayed is 2.5.

Coastal Water Temperatures

Place Temperature

Stations

Nearby Weather Stations

Station Location Temp. Windchill Dew Point Humidity Wind Precip. Elev Updated Type